Atlantic - Newfoundland: Past 24 Hour Conditions

 

North Cape

11:00 AM ADT 21 September 2014
This table is a summary of hourly weather conditions for the past 24 hours.
Date / Time
(ADT)
Wind(knots) Conditions Visibility(km) Pressure(kPa) Air tempC) Relative humidity(%) Dew pointC)
21 September 2014
11:00 SSW 17 gust 24 N/A N/A 101.3 18 68 12
10:00 SW 16 gust 24 N/A N/A 101.3 17 70 12
9:00 SSW 13 gust 23 N/A N/A 101.3 16 76 12
8:00 SSW 15 N/A N/A 101.3 15 83 12
7:00 SSW 13 gust 19 N/A N/A 101.3 14 84 11
6:00 SSW 17 gust 22 N/A N/A 101.3 14 84 11
5:00 SSW 20 gust 25 N/A N/A 101.4 15 79 11
4:00 SW 19 gust 24 N/A N/A 101.4 15 80 11
3:00 SW 15 gust 23 N/A N/A 101.5 14 83 11
2:00 SW 16 gust 22 N/A N/A 101.5 14 83 11
1:00 SW 18 gust 25 N/A N/A 101.6 13 83 11
0:00 SW 21 gust 28 N/A N/A 101.6 14 81 10
20 September 2014
23:00 SW 23 gust 29 N/A N/A 101.6 14 78 10
22:00 SW 24 N/A N/A 101.6 13 76 9
21:00 SW 22 gust 29 N/A N/A 101.6 13 72 8
20:00 SW 22 gust 30 N/A N/A 101.6 13 72 8
19:00 SSW 18 gust 24 N/A N/A 101.7 13 69 7
18:00 SSW 21 gust 26 N/A N/A 101.7 14 60 6
17:00 SW 20 gust 26 N/A N/A 101.7 14 57 5
16:00 SSW 16 gust 25 N/A N/A 101.8 14 58 5
15:00 SW 23 gust 31 N/A N/A 101.9 13 57 5
14:00 SW 28 gust 33 N/A N/A 101.9 13 57 5
13:00 SW 26 gust 33 N/A N/A 102.0 12 58 4
12:00 SW 31 gust 38 N/A N/A 102.0 12 59 4
11:00 SW 27 gust 34 N/A N/A 102.2 11 64 4
 
Map of Atlantic - Newfoundland marine weather areas Southwestern Grand Banks - 44138 Banquereau - 44139 Tail of the Bank - 44140 Nickerson Bank - 44251 Northeast Burgeo Bank - 44255 Blanc-Sablon Airport Cap Whittle Chevery Natashquan Airport Heath Point Miscou Island Grand Étang Ingonish Beach North Mountain St.Paul Island J.A. Douglas McCurdy Sydney Airport Charlottetown Airport East Point North Cape Argentia Bonavista Burgeo Cape Race Corner Brook Daniel's Harbour Englee Ferolle Point La Scie Port aux Basques Rocky Harbour Sagona Island St. Anthony Airport St. John's Int'l Airport St. Lawrence Stephenville Airport Twillingate Winterland Wreckhouse Cartwright Airport Mary's Harbour Grates Cove Pool's Island Marticot Island Long Pond Îles de la Madeleine Airport
Legend: buoyBuoy land stationLand Station